Time;durP1;ratioP1;P1;durP2;ratioP2;P2;SDS_P1;SDS_P2;PMS_P1;PMS_P2;Temp;Humidity;BMP_temperature;BMP_pressure;BME280_temperature;BME280_humidity;BME280_pressure;Samples;Min_cycle;Max_cycle;Signal;HPM_P1;HPM_P2
2022/02/16 00:00:31;;;;;;;23.63;12.35;;;;;;;;;;5013984;28;20056;-63
2022/02/16 00:02:57;;;;;;;22.08;12.10;;;;;;;;;;5013623;28;20383;-64
2022/02/16 00:05:23;;;;;;;19.63;11.35;;;;;;;;;;5013526;28;20029;-63
2022/02/16 00:07:49;;;;;;;22.92;11.55;;;;;;;;;;5013619;28;20101;-64
2022/02/16 00:10:17;;;;;;;21.95;10.65;;;;;;;;;;5013752;28;20033;-64
2022/02/16 00:12:44;;;;;;;18.45;10.15;;;;;;;;;;5013631;28;20053;-64
2022/02/16 00:15:13;;;;;;;24.50;10.50;;;;;;;;;;5013877;28;20501;-64
2022/02/16 00:17:39;;;;;;;23.25;11.13;;;;;;;;;;5013366;28;20032;-64
2022/02/16 00:20:06;;;;;;;23.85;11.57;;;;;;;;;;5013382;28;20065;-63
2022/02/16 00:22:32;;;;;;;19.63;10.75;;;;;;;;;;5013132;28;20026;-63
2022/02/16 00:24:58;;;;;;;22.55;10.70;;;;;;;;;;5013054;28;20034;-64
2022/02/16 00:27:24;;;;;;;18.17;10.27;;;;;;;;;;5013532;28;20147;-64
2022/02/16 00:29:50;;;;;;;22.40;10.85;;;;;;;;;;5013350;28;20060;-63
2022/02/16 00:32:16;;;;;;;20.90;10.95;;;;;;;;;;5012958;28;20026;-63
2022/02/16 00:34:42;;;;;;;20.17;9.95;;;;;;;;;;5013182;28;20026;-63
2022/02/16 00:37:08;;;;;;;19.27;10.13;;;;;;;;;;5013145;28;20026;-63
2022/02/16 00:39:35;;;;;;;19.13;10.02;;;;;;;;;;5012947;28;20672;-63
2022/02/16 00:42:01;;;;;;;24.90;10.77;;;;;;;;;;5013031;28;20148;-63
2022/02/16 00:44:27;;;;;;;23.13;10.20;;;;;;;;;;5012742;28;20438;-63
2022/02/16 00:46:54;;;;;;;19.55;10.57;;;;;;;;;;5012661;28;20053;-63
2022/02/16 00:49:20;;;;;;;22.10;10.55;;;;;;;;;;5013158;28;20034;-63
2022/02/16 00:51:46;;;;;;;22.10;11.05;;;;;;;;;;5012661;28;20486;-64
2022/02/16 00:54:12;;;;;;;19.35;11.05;;;;;;;;;;5012946;28;20467;-63
2022/02/16 00:56:40;;;;;;;25.45;12.35;;;;;;;;;;5012895;28;20037;-63
2022/02/16 00:59:06;;;;;;;21.80;11.50;;;;;;;;;;5012904;28;20036;-63
2022/02/16 01:01:32;;;;;;;19.65;10.30;;;;;;;;;;5012773;28;20387;-64
2022/02/16 01:03:58;;;;;;;20.80;10.82;;;;;;;;;;5012663;28;20132;-63
2022/02/16 01:06:24;;;;;;;19.40;10.50;;;;;;;;;;5012557;28;20422;-63
2022/02/16 01:08:51;;;;;;;16.25;9.32;;;;;;;;;;5012616;28;20474;-63
2022/02/16 01:11:17;;;;;;;16.80;9.75;;;;;;;;;;5011952;28;20026;-64
2022/02/16 01:13:43;;;;;;;18.45;9.25;;;;;;;;;;5012316;28;20113;-63
2022/02/16 01:16:09;;;;;;;18.10;9.95;;;;;;;;;;5012296;28;20516;-63
2022/02/16 01:18:35;;;;;;;22.10;9.98;;;;;;;;;;5012258;28;20030;-63
2022/02/16 01:21:01;;;;;;;17.58;9.70;;;;;;;;;;5012235;28;20092;-64
2022/02/16 01:23:27;;;;;;;15.60;9.25;;;;;;;;;;5012121;28;20021;-64
2022/02/16 01:25:53;;;;;;;13.57;8.35;;;;;;;;;;5012237;28;20057;-63
2022/02/16 01:28:19;;;;;;;14.73;8.25;;;;;;;;;;5012106;28;20026;-63
2022/02/16 01:30:45;;;;;;;16.63;7.85;;;;;;;;;;5012134;28;20049;-63
2022/02/16 01:33:11;;;;;;;15.30;8.45;;;;;;;;;;5011959;28;20032;-63
2022/02/16 01:35:37;;;;;;;17.13;8.65;;;;;;;;;;5012070;28;20025;-63
2022/02/16 01:38:04;;;;;;;11.48;7.15;;;;;;;;;;5012335;28;20029;-63
2022/02/16 01:40:30;;;;;;;13.88;7.75;;;;;;;;;;5012296;28;20498;-63
2022/02/16 01:42:56;;;;;;;13.00;5.97;;;;;;;;;;5011870;28;20026;-63
2022/02/16 01:45:26;;;;;;;12.25;7.18;;;;;;;;;;5011743;28;20045;-63
2022/02/16 01:47:52;;;;;;;10.95;5.82;;;;;;;;;;5012137;28;20081;-65
2022/02/16 01:50:18;;;;;;;7.40;5.30;;;;;;;;;;5011960;28;20022;-64
2022/02/16 01:52:44;;;;;;;10.77;5.60;;;;;;;;;;5011641;28;20026;-66
2022/02/16 01:55:11;;;;;;;12.25;5.28;;;;;;;;;;5011731;28;20022;-65
2022/02/16 01:57:38;;;;;;;9.48;5.30;;;;;;;;;;5011742;28;20028;-64
2022/02/16 02:00:05;;;;;;;9.73;5.20;;;;;;;;;;5011719;28;20117;-64
2022/02/16 02:02:31;;;;;;;8.38;5.20;;;;;;;;;;5011634;28;20033;-63
2022/02/16 02:04:57;;;;;;;9.18;4.50;;;;;;;;;;5011691;28;20437;-64
2022/02/16 02:07:23;;;;;;;9.10;5.05;;;;;;;;;;5011622;28;20379;-65
2022/02/16 02:09:49;;;;;;;7.40;5.18;;;;;;;;;;5011223;28;20030;-65
2022/02/16 02:12:15;;;;;;;12.40;6.75;;;;;;;;;;5011851;28;20040;-62
2022/02/16 02:14:42;;;;;;;13.55;7.43;;;;;;;;;;5011464;28;20041;-64
2022/02/16 02:17:08;;;;;;;11.68;7.38;;;;;;;;;;5011364;28;20030;-64
2022/02/16 02:19:34;;;;;;;15.88;8.45;;;;;;;;;;5011692;28;20033;-65
2022/02/16 02:22:00;;;;;;;24.02;10.40;;;;;;;;;;5011568;28;20049;-64
2022/02/16 02:24:26;;;;;;;28.15;12.60;;;;;;;;;;5011576;28;20022;-65
2022/02/16 02:26:52;;;;;;;26.20;11.90;;;;;;;;;;5011702;28;20026;-64
2022/02/16 02:29:18;;;;;;;22.85;10.75;;;;;;;;;;5011611;28;20026;-65
2022/02/16 02:31:45;;;;;;;21.13;10.32;;;;;;;;;;5014906;28;20097;-64
2022/02/16 02:34:11;;;;;;;21.50;10.27;;;;;;;;;;5015770;28;20026;-65
2022/02/16 02:36:37;;;;;;;21.38;9.98;;;;;;;;;;5015829;28;20100;-64
2022/02/16 02:39:04;;;;;;;22.55;9.93;;;;;;;;;;5015727;28;20402;-64
2022/02/16 02:41:30;;;;;;;18.45;9.30;;;;;;;;;;5015793;28;20026;-63
2022/02/16 02:43:56;;;;;;;19.38;9.35;;;;;;;;;;5015349;28;20036;-65
2022/02/16 02:46:22;;;;;;;19.60;9.18;;;;;;;;;;5015261;28;20046;-64
2022/02/16 02:48:48;;;;;;;19.98;9.40;;;;;;;;;;5015266;28;20036;-65
2022/02/16 02:51:15;;;;;;;18.38;9.30;;;;;;;;;;5015299;28;20034;-65
2022/02/16 02:53:41;;;;;;;17.73;8.45;;;;;;;;;;5015378;28;20045;-64
2022/02/16 02:56:08;;;;;;;16.77;8.45;;;;;;;;;;5015077;28;20030;-63
2022/02/16 02:58:34;;;;;;;15.93;8.00;;;;;;;;;;5013911;28;20026;-66
2022/02/16 03:01:01;;;;;;;13.10;7.13;;;;;;;;;;5015644;28;20471;-64
2022/02/16 03:03:27;;;;;;;13.77;7.38;;;;;;;;;;5016488;28;20028;-65
2022/02/16 03:05:53;;;;;;;19.42;8.07;;;;;;;;;;5014014;28;20026;-64
2022/02/16 03:08:19;;;;;;;14.27;8.05;;;;;;;;;;5014875;28;20033;-64
2022/02/16 03:10:45;;;;;;;12.90;7.38;;;;;;;;;;5014769;28;20053;-64
2022/02/16 03:13:20;;;;;;;11.02;6.82;;;;;;;;;;5014527;28;20034;-65
2022/02/16 03:15:51;;;;;;;11.88;7.13;;;;;;;;;;5014558;28;20033;-64
2022/02/16 03:18:20;;;;;;;12.13;8.00;;;;;;;;;;5014464;28;20041;-62
2022/02/16 03:20:46;;;;;;;12.65;7.35;;;;;;;;;;5014519;28;20030;-62
2022/02/16 03:23:12;;;;;;;12.55;7.47;;;;;;;;;;5014603;28;20382;-62
2022/02/16 03:25:38;;;;;;;15.32;8.18;;;;;;;;;;5014336;28;20026;-62
2022/02/16 03:28:04;;;;;;;18.80;10.80;;;;;;;;;;5014120;28;20176;-62
2022/02/16 03:30:31;;;;;;;16.17;11.13;;;;;;;;;;5014468;28;20056;-64
2022/02/16 03:32:57;;;;;;;18.40;11.05;;;;;;;;;;5014195;28;20018;-64
2022/02/16 03:35:23;;;;;;;18.55;11.60;;;;;;;;;;5014608;28;20041;-62
2022/02/16 03:37:49;;;;;;;23.80;16.10;;;;;;;;;;5014206;28;20033;-62
2022/02/16 03:40:15;;;;;;;30.20;19.70;;;;;;;;;;5014196;28;20045;-63
2022/02/16 03:42:41;;;;;;;27.38;18.45;;;;;;;;;;5013786;28;20101;-65
2022/02/16 03:45:07;;;;;;;29.10;16.67;;;;;;;;;;5013988;28;20181;-64
2022/02/16 03:47:34;;;;;;;20.38;13.73;;;;;;;;;;5014017;28;20101;-64
2022/02/16 03:50:00;;;;;;;19.42;13.90;;;;;;;;;;5014291;28;20486;-64
2022/02/16 03:52:26;;;;;;;20.02;14.02;;;;;;;;;;5014186;28;20030;-64
2022/02/16 03:54:53;;;;;;;17.85;12.98;;;;;;;;;;5013775;28;20026;-63
2022/02/16 03:57:20;;;;;;;18.33;13.10;;;;;;;;;;5013981;28;20022;-64
2022/02/16 03:59:46;;;;;;;28.58;14.60;;;;;;;;;;5014346;28;20038;-64
2022/02/16 04:02:12;;;;;;;21.48;13.27;;;;;;;;;;5013922;28;20022;-62
2022/02/16 04:04:38;;;;;;;22.67;14.85;;;;;;;;;;5013850;28;20478;-64
2022/02/16 04:07:04;;;;;;;24.33;12.45;;;;;;;;;;5013715;28;20486;-63
2022/02/16 04:09:30;;;;;;;22.13;14.25;;;;;;;;;;5013750;28;20022;-63
2022/02/16 04:11:56;;;;;;;19.05;11.57;;;;;;;;;;5013671;28;20022;-65
2022/02/16 04:14:22;;;;;;;20.55;10.15;;;;;;;;;;5013716;28;20109;-63
2022/02/16 04:16:49;;;;;;;13.73;8.63;;;;;;;;;;5013486;28;20064;-63
2022/02/16 04:19:15;;;;;;;15.93;9.20;;;;;;;;;;5013518;28;20038;-66
2022/02/16 04:21:41;;;;;;;14.98;9.02;;;;;;;;;;5013612;28;20084;-65
2022/02/16 04:24:07;;;;;;;16.88;9.48;;;;;;;;;;5013202;28;20053;-63
2022/02/16 04:26:33;;;;;;;15.52;9.32;;;;;;;;;;5013372;28;20026;-66
2022/02/16 04:28:59;;;;;;;19.40;9.48;;;;;;;;;;5013416;28;20586;-65
2022/02/16 04:31:26;;;;;;;19.65;10.40;;;;;;;;;;5013361;28;20041;-65
2022/02/16 04:33:52;;;;;;;17.23;9.77;;;;;;;;;;5013127;28;20455;-64
2022/02/16 04:36:25;;;;;;;19.25;10.25;;;;;;;;;;5012917;28;20037;-65
2022/02/16 04:38:54;;;;;;;18.58;10.48;;;;;;;;;;5013217;28;20348;-65
2022/02/16 04:41:20;;;;;;;19.15;9.82;;;;;;;;;;5013085;28;20034;-65
2022/02/16 04:43:47;;;;;;;16.67;8.98;;;;;;;;;;5012977;28;20591;-66
2022/02/16 04:46:13;;;;;;;22.13;10.13;;;;;;;;;;5012985;28;20434;-66
2022/02/16 04:48:39;;;;;;;19.55;9.88;;;;;;;;;;5012843;28;20022;-64
2022/02/16 04:51:05;;;;;;;17.60;10.15;;;;;;;;;;5012664;28;20030;-64
2022/02/16 04:53:35;;;;;;;17.90;9.57;;;;;;;;;;5011908;28;20096;-64
2022/02/16 04:56:05;;;;;;;21.60;11.38;;;;;;;;;;5012710;28;20068;-65
2022/02/16 04:58:31;;;;;;;22.15;10.75;;;;;;;;;;5012855;28;20509;-65
2022/02/16 05:00:57;;;;;;;19.85;9.77;;;;;;;;;;5012858;28;20092;-65
2022/02/16 05:03:23;;;;;;;15.10;8.68;;;;;;;;;;5011308;28;20505;-65
2022/02/16 05:05:49;;;;;;;19.33;8.57;;;;;;;;;;5012647;28;20030;-65
2022/02/16 05:08:16;;;;;;;13.65;8.55;;;;;;;;;;5012528;28;20034;-65
2022/02/16 05:10:42;;;;;;;16.75;8.25;;;;;;;;;;5012549;28;20100;-65
2022/02/16 05:13:08;;;;;;;15.68;9.00;;;;;;;;;;5012512;28;20060;-65
2022/02/16 05:15:34;;;;;;;15.68;8.80;;;;;;;;;;5012800;28;20121;-65
2022/02/16 05:18:00;;;;;;;16.15;8.48;;;;;;;;;;5012398;28;20466;-65
2022/02/16 05:20:27;;;;;;;19.08;9.30;;;;;;;;;;5012284;28;20038;-64
2022/02/16 05:22:53;;;;;;;14.48;7.72;;;;;;;;;;5012370;28;20415;-64
2022/02/16 05:25:19;;;;;;;14.10;8.80;;;;;;;;;;5012361;28;20030;-64
2022/02/16 05:27:45;;;;;;;15.68;9.00;;;;;;;;;;5012299;28;20026;-64
2022/02/16 05:30:13;;;;;;;15.90;9.13;;;;;;;;;;5011297;28;20441;-63
2022/02/16 05:32:40;;;;;;;14.18;8.70;;;;;;;;;;5012295;28;20029;-63
2022/02/16 05:35:09;;;;;;;16.27;8.45;;;;;;;;;;5012027;28;20431;-64
2022/02/16 05:37:35;;;;;;;15.68;8.32;;;;;;;;;;5012148;28;20018;-64
2022/02/16 05:40:01;;;;;;;15.00;8.70;;;;;;;;;;5012320;28;20042;-63
2022/02/16 05:42:27;;;;;;;15.65;8.48;;;;;;;;;;5011912;28;20022;-64
2022/02/16 05:44:53;;;;;;;13.45;8.50;;;;;;;;;;5011903;28;20034;-64
2022/02/16 05:47:19;;;;;;;15.57;8.52;;;;;;;;;;5012079;28;20041;-64
2022/02/16 05:49:45;;;;;;;14.07;8.30;;;;;;;;;;5011581;28;20141;-64
2022/02/16 05:52:12;;;;;;;14.98;7.80;;;;;;;;;;5012136;28;20501;-64
2022/02/16 05:54:40;;;;;;;14.27;8.32;;;;;;;;;;5011504;28;20053;-65
2022/02/16 05:57:09;;;;;;;16.60;8.98;;;;;;;;;;5011829;28;20032;-63
2022/02/16 05:59:35;;;;;;;14.88;8.57;;;;;;;;;;5011687;28;20116;-63
2022/02/16 06:02:03;;;;;;;14.45;8.88;;;;;;;;;;5011639;28;20053;-63
2022/02/16 06:04:33;;;;;;;18.45;10.20;;;;;;;;;;5011162;28;20076;-64
2022/02/16 06:07:00;;;;;;;13.80;9.27;;;;;;;;;;5011378;28;20024;-64
2022/02/16 06:09:26;;;;;;;16.40;9.50;;;;;;;;;;5011594;28;20387;-64
2022/02/16 06:11:52;;;;;;;15.25;9.38;;;;;;;;;;5011574;28;20605;-65
2022/02/16 06:14:18;;;;;;;16.23;9.23;;;;;;;;;;5011671;28;20046;-64
2022/02/16 06:16:44;;;;;;;17.27;10.40;;;;;;;;;;5011407;28;20026;-64
2022/02/16 06:19:10;;;;;;;15.68;9.95;;;;;;;;;;5011198;28;20045;-63
2022/02/16 06:21:36;;;;;;;16.40;10.55;;;;;;;;;;5011480;28;20026;-64
2022/02/16 06:24:02;;;;;;;14.73;10.00;;;;;;;;;;5010154;28;20033;-64
2022/02/16 06:26:29;;;;;;;18.48;13.43;;;;;;;;;;5011465;28;20060;-64
2022/02/16 06:28:55;;;;;;;19.48;11.55;;;;;;;;;;5011344;28;20034;-64
2022/02/16 06:31:21;;;;;;;17.88;11.88;;;;;;;;;;5011348;28;20038;-64
2022/02/16 06:33:47;;;;;;;17.73;12.07;;;;;;;;;;5011393;28;20030;-64
2022/02/16 06:36:13;;;;;;;19.45;11.68;;;;;;;;;;5011145;28;20038;-64
2022/02/16 06:38:39;;;;;;;18.95;12.93;;;;;;;;;;5011417;28;20026;-63
2022/02/16 06:41:05;;;;;;;18.92;12.40;;;;;;;;;;5011430;28;20513;-64
2022/02/16 06:43:31;;;;;;;20.70;12.88;;;;;;;;;;5011261;28;20041;-63
2022/02/16 06:45:58;;;;;;;18.30;12.95;;;;;;;;;;5011123;28;20046;-63
2022/02/16 06:48:24;;;;;;;21.67;13.05;;;;;;;;;;5011236;28;20053;-64
2022/02/16 06:50:50;;;;;;;19.20;12.70;;;;;;;;;;5011308;28;20034;-64
2022/02/16 06:53:16;;;;;;;18.85;13.40;;;;;;;;;;5011219;28;20084;-66
2022/02/16 06:55:42;;;;;;;20.27;14.30;;;;;;;;;;5010993;28;20458;-63
2022/02/16 06:58:08;;;;;;;21.20;14.45;;;;;;;;;;5011212;28;20057;-64
2022/02/16 07:00:34;;;;;;;19.52;13.48;;;;;;;;;;5011041;28;20486;-64
2022/02/16 07:03:00;;;;;;;21.83;13.55;;;;;;;;;;5010994;28;20471;-64
2022/02/16 07:05:26;;;;;;;21.40;13.30;;;;;;;;;;5010824;28;20033;-64
2022/02/16 07:07:52;;;;;;;21.35;14.23;;;;;;;;;;5010807;28;20022;-64
2022/02/16 07:10:18;;;;;;;21.88;14.18;;;;;;;;;;5010801;28;20034;-63
2022/02/16 07:12:44;;;;;;;21.10;14.50;;;;;;;;;;5010906;28;20538;-64
2022/02/16 07:15:11;;;;;;;23.05;15.68;;;;;;;;;;5011141;28;20482;-64
2022/02/16 07:17:41;;;;;;;23.40;16.23;;;;;;;;;;5013463;28;20084;-63
2022/02/16 07:20:11;;;;;;;23.65;16.83;;;;;;;;;;5013874;28;20038;-63
2022/02/16 07:22:39;;;;;;;23.08;16.50;;;;;;;;;;5014988;28;20065;-63
2022/02/16 07:25:05;;;;;;;23.83;15.85;;;;;;;;;;5014362;28;20113;-63
2022/02/16 07:27:31;;;;;;;22.20;16.05;;;;;;;;;;5014394;28;20056;-64
2022/02/16 07:29:57;;;;;;;25.15;15.98;;;;;;;;;;5014566;28;20117;-64
2022/02/16 07:32:23;;;;;;;23.55;15.55;;;;;;;;;;5014295;28;20033;-64
2022/02/16 07:34:49;;;;;;;23.80;15.60;;;;;;;;;;5014264;28;20026;-64
2022/02/16 07:37:15;;;;;;;22.38;15.80;;;;;;;;;;5014273;28;20079;-64
2022/02/16 07:39:41;;;;;;;21.83;14.82;;;;;;;;;;5014407;28;20398;-64
2022/02/16 07:42:07;;;;;;;23.73;15.23;;;;;;;;;;5014503;28;20026;-65
2022/02/16 07:44:33;;;;;;;19.77;14.52;;;;;;;;;;5014319;28;20030;-64
2022/02/16 07:47:02;;;;;;;26.27;15.10;;;;;;;;;;5013957;28;20049;-64
2022/02/16 07:49:28;;;;;;;24.92;15.75;;;;;;;;;;5014126;28;20509;-64
2022/02/16 07:51:54;;;;;;;21.20;14.68;;;;;;;;;;5013919;28;20108;-64
2022/02/16 07:54:20;;;;;;;21.58;14.70;;;;;;;;;;5013921;28;20096;-63
2022/02/16 07:56:47;;;;;;;21.05;14.15;;;;;;;;;;5014066;28;20057;-63
2022/02/16 07:59:13;;;;;;;21.42;14.13;;;;;;;;;;5014323;28;20474;-64
2022/02/16 08:01:39;;;;;;;22.52;14.25;;;;;;;;;;5013947;28;20041;-63
2022/02/16 08:04:17;;;;;;;23.85;15.60;;;;;;;;;;5013900;28;20033;-64
2022/02/16 08:06:44;;;;;;;24.23;15.50;;;;;;;;;;5013464;28;20117;-64
2022/02/16 08:09:10;;;;;;;23.52;15.15;;;;;;;;;;5013927;28;20022;-64
2022/02/16 08:11:37;;;;;;;22.02;15.05;;;;;;;;;;5013740;28;20026;-64
2022/02/16 08:14:04;;;;;;;25.27;14.75;;;;;;;;;;5013378;28;20033;-64
2022/02/16 08:16:31;;;;;;;26.75;16.85;;;;;;;;;;5013446;28;20034;-63
2022/02/16 08:18:57;;;;;;;26.40;15.60;;;;;;;;;;5013329;28;20044;-63
2022/02/16 08:21:23;;;;;;;24.85;15.80;;;;;;;;;;5013253;28;20030;-63
2022/02/16 08:23:49;;;;;;;23.13;14.95;;;;;;;;;;5012942;28;20064;-63
2022/02/16 08:26:15;;;;;;;21.00;14.98;;;;;;;;;;5013357;28;20087;-63
2022/02/16 08:28:42;;;;;;;24.13;15.20;;;;;;;;;;5012375;28;20404;-64
2022/02/16 08:31:08;;;;;;;29.20;16.80;;;;;;;;;;5012176;28;20068;-63
2022/02/16 08:33:34;;;;;;;25.60;15.43;;;;;;;;;;5013157;28;20037;-64
2022/02/16 08:36:00;;;;;;;29.15;18.88;;;;;;;;;;5013127;28;20108;-65
2022/02/16 08:38:26;;;;;;;33.78;21.02;;;;;;;;;;5013076;28;20033;-64
2022/02/16 08:40:52;;;;;;;28.20;19.05;;;;;;;;;;5012945;28;20038;-65
2022/02/16 08:43:18;;;;;;;26.88;17.83;;;;;;;;;;5013090;28;20422;-63
2022/02/16 08:45:44;;;;;;;25.55;16.65;;;;;;;;;;5012841;28;20071;-64
2022/02/16 08:48:10;;;;;;;25.02;15.45;;;;;;;;;;5012968;28;20030;-65
2022/02/16 08:50:36;;;;;;;21.65;14.70;;;;;;;;;;5012842;28;20467;-63
2022/02/16 08:53:02;;;;;;;20.30;13.52;;;;;;;;;;5012822;28;20049;-64
2022/02/16 08:55:28;;;;;;;19.50;13.15;;;;;;;;;;5012758;28;20029;-64
2022/02/16 08:57:54;;;;;;;20.48;13.73;;;;;;;;;;5012960;28;20053;-65
2022/02/16 09:00:21;;;;;;;27.45;14.85;;;;;;;;;;5012500;28;20068;-65
2022/02/16 09:02:47;;;;;;;22.23;13.05;;;;;;;;;;5012301;28;20552;-63
2022/02/16 09:05:14;;;;;;;21.88;13.63;;;;;;;;;;5012170;28;20057;-63
2022/02/16 09:07:40;;;;;;;25.65;14.10;;;;;;;;;;5012350;28;20505;-64
2022/02/16 09:10:08;;;;;;;20.45;13.25;;;;;;;;;;5012726;28;20036;-63
2022/02/16 09:12:34;;;;;;;22.38;13.32;;;;;;;;;;5012687;28;20057;-63
2022/02/16 09:15:02;;;;;;;20.98;13.43;;;;;;;;;;5012386;28;20026;-64
2022/02/16 09:17:28;;;;;;;44.67;17.75;;;;;;;;;;5012526;28;20041;-64
2022/02/16 09:19:54;;;;;;;32.13;18.83;;;;;;;;;;5012255;28;20545;-63
2022/02/16 09:22:22;;;;;;;21.30;13.77;;;;;;;;;;5012487;28;20032;-63
2022/02/16 09:24:48;;;;;;;37.97;25.58;;;;;;;;;;5012532;28;20054;-63
2022/02/16 09:27:14;;;;;;;23.55;14.40;;;;;;;;;;5012251;28;20096;-63
2022/02/16 09:29:41;;;;;;;26.25;16.88;;;;;;;;;;5012620;28;20422;-63
2022/02/16 09:32:07;;;;;;;24.63;16.52;;;;;;;;;;5012219;28;20053;-65
2022/02/16 09:34:33;;;;;;;20.65;14.25;;;;;;;;;;5012251;28;20110;-64
2022/02/16 09:36:59;;;;;;;21.23;14.10;;;;;;;;;;5012089;28;20030;-64
2022/02/16 09:39:26;;;;;;;25.30;15.90;;;;;;;;;;5011503;28;20042;-64
2022/02/16 09:41:52;;;;;;;28.67;17.88;;;;;;;;;;5011220;28;20033;-64
2022/02/16 09:44:25;;;;;;;25.80;17.35;;;;;;;;;;5011879;28;20041;-64
2022/02/16 09:46:51;;;;;;;29.58;19.05;;;;;;;;;;5011221;28;20104;-64
2022/02/16 09:49:17;;;;;;;31.02;20.38;;;;;;;;;;5011703;28;20026;-64
2022/02/16 09:51:44;;;;;;;27.60;19.15;;;;;;;;;;5011332;28;20026;-64
2022/02/16 09:54:12;;;;;;;27.67;20.08;;;;;;;;;;5011723;28;20017;-64
2022/02/16 09:56:42;;;;;;;29.15;19.88;;;;;;;;;;5011750;28;20044;-64
2022/02/16 09:59:08;;;;;;;31.13;21.48;;;;;;;;;;5011473;28;20375;-65
2022/02/16 10:01:52;;;;;;;31.77;21.27;;;;;;;;;;5011969;28;20033;-64
2022/02/16 10:04:18;;;;;;;31.85;21.90;;;;;;;;;;5011659;28;20037;-64
2022/02/16 10:06:45;;;;;;;34.05;23.15;;;;;;;;;;5011650;28;20120;-64
2022/02/16 10:09:24;;;;;;;34.17;23.95;;;;;;;;;;5011421;28;20184;-64
2022/02/16 10:11:51;;;;;;;37.42;24.20;;;;;;;;;;5011391;28;20022;-64
2022/02/16 10:14:21;;;;;;;36.05;25.48;;;;;;;;;;5011543;28;20034;-64
2022/02/16 10:16:48;;;;;;;33.83;24.83;;;;;;;;;;5011303;28;20037;-64
2022/02/16 10:19:14;;;;;;;40.30;26.63;;;;;;;;;;5011428;28;20460;-64
2022/02/16 10:21:58;;;;;;;42.53;29.15;;;;;;;;;;5011495;28;20022;-64
2022/02/16 10:24:24;;;;;;;57.72;38.35;;;;;;;;;;5011351;28;20049;-64
2022/02/16 10:26:54;;;;;;;51.63;34.88;;;;;;;;;;5011386;28;20755;-65
2022/02/16 10:29:21;;;;;;;36.10;25.13;;;;;;;;;;5011262;28;20395;-63
2022/02/16 10:31:47;;;;;;;40.63;25.85;;;;;;;;;;5010532;28;20073;-65
2022/02/16 10:34:14;;;;;;;47.70;30.15;;;;;;;;;;5010743;28;20021;-64
2022/02/16 10:36:40;;;;;;;31.33;20.65;;;;;;;;;;5011227;28;20116;-64
2022/02/16 10:39:07;;;;;;;31.65;21.58;;;;;;;;;;5011007;28;20129;-65
2022/02/16 10:41:40;;;;;;;29.17;19.48;;;;;;;;;;5011220;28;20045;-64
2022/02/16 10:44:06;;;;;;;;;;;;;;;;;;5011514;28;20026;-65
2022/02/16 10:46:32;;;;;;;30.35;17.42;;;;;;;;;;5010927;28;19921;-64
2022/02/16 10:49:09;;;;;;;24.95;17.02;;;;;;;;;;5011267;28;20033;-64
2022/02/16 10:51:36;;;;;;;24.63;17.92;;;;;;;;;;5012682;28;20037;-64
2022/02/16 10:54:12;;;;;;;27.45;18.38;;;;;;;;;;5015066;28;20049;-64
2022/02/16 10:56:39;;;;;;;33.70;22.27;;;;;;;;;;5015219;28;20426;-64
2022/02/16 10:59:05;;;;;;;36.65;24.35;;;;;;;;;;5015279;28;20033;-63
2022/02/16 11:01:32;;;;;;;34.67;24.15;;;;;;;;;;5015175;28;20034;-64
2022/02/16 11:03:59;;;;;;;43.03;23.65;;;;;;;;;;5014758;28;20022;-64
2022/02/16 11:06:25;;;;;;;37.35;23.98;;;;;;;;;;5014810;28;20026;-64
2022/02/16 11:08:53;;;;;;;57.15;33.88;;;;;;;;;;5014449;28;20022;-64
2022/02/16 11:11:20;;;;;;;38.50;24.83;;;;;;;;;;5014419;28;20109;-64
2022/02/16 11:13:46;;;;;;;39.35;24.95;;;;;;;;;;5014215;28;20061;-63
2022/02/16 11:16:13;;;;;;;36.03;24.15;;;;;;;;;;5014336;28;20038;-63
2022/02/16 11:18:46;;;;;;;36.22;23.95;;;;;;;;;;5014285;28;20026;-65
2022/02/16 11:21:19;;;;;;;33.15;23.40;;;;;;;;;;5014005;28;20034;-65
2022/02/16 11:23:48;;;;;;;35.58;23.52;;;;;;;;;;5014131;28;20076;-66
2022/02/16 11:26:26;;;;;;;37.55;25.23;;;;;;;;;;5014015;28;20029;-64
2022/02/16 11:28:52;;;;;;;36.50;26.55;;;;;;;;;;5014246;28;20490;-66
2022/02/16 11:31:26;;;;;;;37.00;24.83;;;;;;;;;;5014003;28;20034;-64
2022/02/16 11:34:10;;;;;;;38.05;25.40;;;;;;;;;;5013787;28;20108;-65
2022/02/16 11:36:45;;;;;;;35.13;25.00;;;;;;;;;;5014051;28;20041;-64
2022/02/16 11:39:12;;;;;;;32.95;22.10;;;;;;;;;;5013884;28;20041;-65
2022/02/16 11:41:53;;;;;;;32.10;23.30;;;;;;;;;;5014133;28;20121;-64
2022/02/16 11:44:20;;;;;;;37.42;26.77;;;;;;;;;;5013887;28;20036;-64
2022/02/16 11:46:48;;;;;;;36.33;27.10;;;;;;;;;;5013805;28;20454;-65
2022/02/16 11:49:36;;;;;;;47.67;27.90;;;;;;;;;;5014344;28;20475;-64
2022/02/16 11:52:22;;;;;;;40.13;26.52;;;;;;;;;;5013715;28;20433;-65
2022/02/16 11:54:49;;;;;;;36.45;25.25;;;;;;;;;;5013317;28;20099;-66
2022/02/16 11:57:27;;;;;;;35.00;23.83;;;;;;;;;;5013560;28;20112;-63
2022/02/16 11:59:55;;;;;;;43.58;26.40;;;;;;;;;;5013660;28;20084;-65
2022/02/16 12:02:21;;;;;;;44.47;27.98;;;;;;;;;;5013707;28;20041;-65
2022/02/16 12:04:55;;;;;;;40.22;25.48;;;;;;;;;;5013548;28;20074;-64
2022/02/16 12:07:24;;;;;;;36.58;25.95;;;;;;;;;;5013596;28;20030;-64
2022/02/16 12:10:09;;;;;;;41.85;26.30;;;;;;;;;;5013396;28;20526;-65
2022/02/16 12:12:35;;;;;;;31.88;22.30;;;;;;;;;;5013696;28;20026;-65
2022/02/16 12:15:01;;;;;;;38.50;25.35;;;;;;;;;;5013873;28;20038;-64
2022/02/16 12:17:28;;;;;;;42.95;26.90;;;;;;;;;;5013473;28;20029;-64
2022/02/16 12:19:54;;;;;;;42.53;25.70;;;;;;;;;;5012980;28;20487;-64
2022/02/16 12:22:20;;;;;;;40.58;25.50;;;;;;;;;;5013290;28;20121;-65
2022/02/16 12:24:47;;;;;;;41.00;25.48;;;;;;;;;;5013181;28;20083;-64
2022/02/16 12:27:15;;;;;;;37.28;24.70;;;;;;;;;;5013281;28;20042;-64
2022/02/16 12:29:41;;;;;;;47.20;28.42;;;;;;;;;;5013209;28;20073;-64
2022/02/16 12:32:08;;;;;;;47.80;31.17;;;;;;;;;;5013117;28;20038;-64
2022/02/16 12:34:34;;;;;;;49.90;31.08;;;;;;;;;;5013216;28;20534;-64
2022/02/16 12:37:03;;;;;;;52.50;32.88;;;;;;;;;;5012936;28;20032;-65
2022/02/16 12:39:30;;;;;;;51.92;33.35;;;;;;;;;;5012994;28;20042;-64
2022/02/16 12:42:08;;;;;;;53.78;32.63;;;;;;;;;;5013208;28;20049;-66
2022/02/16 12:44:35;;;;;;;45.05;29.00;;;;;;;;;;5012946;28;20082;-65
2022/02/16 12:47:01;;;;;;;39.63;26.55;;;;;;;;;;5012743;28;20527;-64
2022/02/16 12:49:28;;;;;;;35.42;25.38;;;;;;;;;;5012811;28;20061;-64
2022/02/16 12:51:57;;;;;;;34.30;23.42;;;;;;;;;;5012892;28;20084;-64
2022/02/16 12:54:27;;;;;;;38.28;24.20;;;;;;;;;;5012871;28;20521;-64
2022/02/16 12:56:56;;;;;;;52.13;33.33;;;;;;;;;;5012869;28;20045;-64
2022/02/16 12:59:24;;;;;;;55.63;37.95;;;;;;;;;;5012773;28;20104;-64
2022/02/16 13:01:57;;;;;;;64.22;41.80;;;;;;;;;;5012728;28;20029;-63
2022/02/16 13:04:24;;;;;;;77.18;48.15;;;;;;;;;;5012854;28;20371;-64
2022/02/16 13:06:54;;;;;;;64.82;42.65;;;;;;;;;;5012664;28;20382;-64
2022/02/16 13:09:20;;;;;;;58.42;38.20;;;;;;;;;;5012223;28;20033;-64
2022/02/16 13:11:51;;;;;;;55.67;37.50;;;;;;;;;;5012669;28;20022;-65
2022/02/16 13:14:19;;;;;;;62.97;40.42;;;;;;;;;;5011615;28;20054;-64
2022/02/16 13:17:11;;;;;;;79.50;47.55;;;;;;;;;;5012232;28;20367;-65
2022/02/16 13:19:41;;;;;;;67.45;42.85;;;;;;;;;;5011049;28;20268;-64
2022/02/16 13:22:08;;;;;;;57.50;39.80;;;;;;;;;;5012201;28;20025;-64
2022/02/16 13:24:34;;;;;;;54.20;36.38;;;;;;;;;;5012088;28;20534;-65
2022/02/16 13:27:05;;;;;;;57.78;40.00;;;;;;;;;;5012134;28;20030;-65
2022/02/16 13:29:31;;;;;;;59.92;38.45;;;;;;;;;;5012274;28;20026;-66
2022/02/16 13:31:57;;;;;;;48.75;34.55;;;;;;;;;;5012408;28;20026;-65
2022/02/16 13:34:23;;;;;;;48.10;34.22;;;;;;;;;;5012024;28;20383;-65
2022/02/16 13:36:49;;;;;;;51.05;36.58;;;;;;;;;;5012085;28;20076;-65
2022/02/16 13:39:17;;;;;;;53.38;37.50;;;;;;;;;;5011799;28;20053;-66
2022/02/16 13:41:53;;;;;;;55.65;39.28;;;;;;;;;;5011965;28;20387;-66
2022/02/16 13:44:28;;;;;;;56.80;39.60;;;;;;;;;;5011839;28;20033;-65
2022/02/16 13:46:57;;;;;;;55.45;35.22;;;;;;;;;;5011726;28;20116;-65
2022/02/16 13:49:24;;;;;;;52.17;36.92;;;;;;;;;;5011982;28;20018;-62
2022/02/16 13:51:52;;;;;;;51.92;36.35;;;;;;;;;;5011641;28;20084;-65
2022/02/16 13:54:20;;;;;;;52.55;35.28;;;;;;;;;;5011511;28;20053;-64
2022/02/16 13:56:49;;;;;;;52.42;35.55;;;;;;;;;;5011596;28;20033;-66
2022/02/16 13:59:16;;;;;;;59.75;38.50;;;;;;;;;;5011578;28;20498;-66
2022/02/16 14:01:42;;;;;;;57.97;38.55;;;;;;;;;;5011820;28;20034;-65
2022/02/16 14:04:09;;;;;;;61.17;40.40;;;;;;;;;;5011666;28;20022;-65
2022/02/16 14:06:35;;;;;;;55.55;38.45;;;;;;;;;;5011654;28;20026;-64
2022/02/16 14:09:03;;;;;;;62.70;41.42;;;;;;;;;;5011396;28;20022;-64
2022/02/16 14:11:30;;;;;;;59.08;36.67;;;;;;;;;;5011634;28;20068;-65
2022/02/16 14:13:56;;;;;;;50.63;33.38;;;;;;;;;;5011370;28;20058;-65
2022/02/16 14:16:24;;;;;;;47.63;31.90;;;;;;;;;;5011502;28;20048;-64
2022/02/16 14:21:35;;;;;;;61.08;39.13;;;;;;;;;;5011292;28;20517;-64
2022/02/16 14:24:02;;;;;;;73.45;41.83;;;;;;;;;;5011448;28;20029;-65